createdAt,value
2022-12-08T00:00:07.710Z,72.52
2022-12-08T00:02:58.592Z,72.76
2022-12-08T00:05:43.889Z,72.73
2022-12-08T00:08:29.032Z,72.87
2022-12-08T00:10:55.662Z,72.72
2022-12-08T00:13:22.303Z,72.81
2022-12-08T00:15:48.933Z,72.61
2022-12-08T00:18:15.572Z,72.62
2022-12-08T00:20:42.204Z,72.33
2022-12-08T00:23:08.810Z,72.19
2022-12-08T00:25:36.815Z,72.29
2022-12-08T00:28:03.549Z,72.32
2022-12-08T00:30:30.186Z,72.28
2022-12-08T00:32:56.732Z,72.20
2022-12-08T00:35:23.458Z,72.07
2022-12-08T00:37:56.149Z,71.92
2022-12-08T00:40:26.138Z,71.69
2022-12-08T00:42:52.755Z,72.03
2022-12-08T00:45:19.427Z,71.98
2022-12-08T00:47:46.066Z,71.91
2022-12-08T00:50:12.685Z,71.84
2022-12-08T00:52:39.342Z,71.53
2022-12-08T00:55:06.831Z,71.76
2022-12-08T00:57:33.433Z,71.91
2022-12-08T01:00:00.188Z,71.72
2022-12-08T01:02:27.065Z,71.65
2022-12-08T01:04:53.658Z,71.70
2022-12-08T01:07:20.388Z,71.50
2022-12-08T01:09:47.027Z,71.47
2022-12-08T01:12:13.662Z,71.43
2022-12-08T01:14:40.299Z,71.55
2022-12-08T01:17:07.215Z,71.57
2022-12-08T01:19:33.987Z,71.50
2022-12-08T01:22:00.645Z,71.57
2022-12-08T01:24:27.313Z,71.65
2022-12-08T01:26:53.963Z,72.01
2022-12-08T01:29:20.600Z,72.07
2022-12-08T01:31:47.246Z,72.08
2022-12-08T01:34:14.266Z,72.09
2022-12-08T01:36:41.676Z,72.19
2022-12-08T01:39:13.633Z,72.15
2022-12-08T01:41:41.455Z,71.92
2022-12-08T01:44:08.256Z,72.21
2022-12-08T01:46:37.513Z,72.14
2022-12-08T01:49:35.289Z,72.25
2022-12-08T01:52:14.036Z,72.43
2022-12-08T01:54:53.009Z,72.40
2022-12-08T01:57:22.350Z,72.60
2022-12-08T02:00:16.841Z,72.82
2022-12-08T02:03:03.507Z,72.77
2022-12-08T02:05:36.333Z,72.82
2022-12-08T02:08:10.052Z,73.12
2022-12-08T02:10:39.533Z,73.22
2022-12-08T02:13:10.364Z,73.07
2022-12-08T02:15:59.427Z,73.11
2022-12-08T02:19:02.093Z,72.98
2022-12-08T02:21:51.685Z,73.26
2022-12-08T02:24:45.660Z,73.49
2022-12-08T02:27:46.194Z,73.48
2022-12-08T02:30:12.839Z,73.82
2022-12-08T02:33:10.448Z,73.89
2022-12-08T02:35:48.985Z,74.17
2022-12-08T02:38:40.643Z,74.13
2022-12-08T02:41:35.458Z,74.25
2022-12-08T02:44:13.045Z,74.39
2022-12-08T02:46:46.977Z,74.35
2022-12-08T02:49:16.082Z,74.42
2022-12-08T02:51:42.869Z,74.52
2022-12-08T02:54:09.910Z,74.47
2022-12-08T02:56:45.780Z,74.31
2022-12-08T02:59:24.567Z,74.31
2022-12-08T03:02:12.278Z,74.19
2022-12-08T03:04:57.507Z,74.32
2022-12-08T03:07:50.189Z,74.17
2022-12-08T03:10:42.678Z,74.32
2022-12-08T03:13:27.844Z,74.50
2022-12-08T03:15:56.086Z,74.51
2022-12-08T03:18:28.803Z,74.70
2022-12-08T03:20:55.838Z,74.76
2022-12-08T03:23:24.971Z,74.42
2022-12-08T03:25:57.957Z,74.39
2022-12-08T03:28:25.132Z,74.24
2022-12-08T03:30:57.316Z,74.42
2022-12-08T03:33:31.427Z,74.49
2022-12-08T03:36:01.316Z,74.48
2022-12-08T03:38:40.604Z,74.35
2022-12-08T03:41:19.273Z,74.27
2022-12-08T03:43:57.944Z,74.03
2022-12-08T03:48:53.271Z,74.32
2022-12-08T03:51:20.441Z,74.19
2022-12-08T03:53:47.673Z,74.09
2022-12-08T03:56:33.047Z,73.85
2022-12-08T03:59:00.023Z,73.96
2022-12-08T04:01:27.196Z,74.10
2022-12-08T04:03:54.177Z,74.02
2022-12-08T04:06:21.699Z,74.00
2022-12-08T04:08:49.397Z,73.98
2022-12-08T04:11:16.856Z,73.96
2022-12-08T04:13:43.672Z,73.80
2022-12-08T04:16:19.830Z,73.78
2022-12-08T04:18:47.108Z,73.87
2022-12-08T04:21:14.715Z,73.81
2022-12-08T04:23:41.715Z,73.54
2022-12-08T04:26:08.863Z,73.50
2022-12-08T04:28:36.388Z,73.45
2022-12-08T04:31:03.809Z,73.56
2022-12-08T04:33:30.785Z,73.99
2022-12-08T04:35:57.420Z,74.20
2022-12-08T04:38:24.196Z,74.22
2022-12-08T04:40:50.808Z,73.98
2022-12-08T04:43:17.556Z,73.94
2022-12-08T04:45:44.210Z,74.04
2022-12-08T04:48:14.225Z,73.93
2022-12-08T04:50:42.935Z,74.01
2022-12-08T04:53:11.160Z,74.03
2022-12-08T04:55:40.717Z,73.87
2022-12-08T04:58:07.572Z,74.05
2022-12-08T05:00:34.175Z,74.27
2022-12-08T05:03:01.015Z,74.45
2022-12-08T05:05:27.747Z,74.28
2022-12-08T05:07:54.577Z,74.29
2022-12-08T05:10:21.324Z,74.35
2022-12-08T05:12:47.962Z,74.24
2022-12-08T05:15:14.713Z,74.12
2022-12-08T05:17:41.444Z,74.35
2022-12-08T05:20:09.177Z,74.14
2022-12-08T05:22:35.937Z,73.80
2022-12-08T05:25:02.890Z,73.86
2022-12-08T05:27:30.140Z,73.68
2022-12-08T05:29:56.708Z,73.40
2022-12-08T05:32:23.359Z,73.32
2022-12-08T05:34:49.948Z,73.41
2022-12-08T05:37:16.764Z,73.11
2022-12-08T05:39:43.428Z,73.29
2022-12-08T05:42:10.183Z,73.10
2022-12-08T05:44:36.988Z,73.05
2022-12-08T05:47:03.819Z,72.88
2022-12-08T05:49:30.588Z,73.02
2022-12-08T05:51:57.226Z,72.91
2022-12-08T05:54:23.863Z,72.90
2022-12-08T05:56:50.500Z,72.72
2022-12-08T05:59:17.140Z,72.55
2022-12-08T06:01:44.250Z,72.83
2022-12-08T06:04:11.129Z,72.78
2022-12-08T06:06:38.171Z,72.88
2022-12-08T06:09:05.627Z,73.00
2022-12-08T06:11:32.982Z,72.63
2022-12-08T06:14:00.278Z,72.70
2022-12-08T06:16:27.830Z,72.70
2022-12-08T06:18:55.489Z,72.73
2022-12-08T06:21:22.602Z,72.65
2022-12-08T06:23:51.555Z,72.18
2022-12-08T06:26:19.148Z,72.23
2022-12-08T06:28:45.803Z,72.02
2022-12-08T06:31:24.619Z,72.27
2022-12-08T06:33:52.229Z,72.37
2022-12-08T06:36:21.470Z,72.04
2022-12-08T06:38:48.660Z,71.75
2022-12-08T06:41:16.456Z,71.52
2022-12-08T06:43:43.942Z,71.54
2022-12-08T06:46:17.226Z,71.66
2022-12-08T06:48:44.591Z,71.39
2022-12-08T06:51:14.505Z,71.50
2022-12-08T06:53:42.315Z,71.75
2022-12-08T06:56:09.440Z,71.58
2022-12-08T06:58:36.506Z,71.58
2022-12-08T07:01:08.295Z,71.89
2022-12-08T07:03:36.605Z,71.76
2022-12-08T07:06:04.720Z,71.92
2022-12-08T07:08:32.520Z,72.03
2022-12-08T07:10:59.572Z,72.01
2022-12-08T07:13:26.250Z,71.85
2022-12-08T07:15:52.845Z,71.50
2022-12-08T07:18:19.483Z,71.60
2022-12-08T07:20:46.122Z,71.62
2022-12-08T07:23:12.707Z,71.83
2022-12-08T07:25:39.395Z,71.67
2022-12-08T07:28:10.845Z,71.52
2022-12-08T07:30:38.802Z,71.46
2022-12-08T07:33:06.166Z,71.34
2022-12-08T07:35:35.076Z,71.31
2022-12-08T07:38:02.354Z,71.26
2022-12-08T07:40:29.018Z,71.17
2022-12-08T07:42:55.652Z,71.32
2022-12-08T07:45:25.635Z,71.34
2022-12-08T07:47:56.388Z,71.48
2022-12-08T07:50:23.065Z,71.35
2022-12-08T07:52:49.707Z,71.07
2022-12-08T07:55:16.370Z,71.12
2022-12-08T07:57:42.978Z,71.29
2022-12-08T08:00:10.740Z,71.38
2022-12-08T08:02:41.488Z,71.40
2022-12-08T08:05:09.501Z,71.42
2022-12-08T08:07:36.841Z,71.72
2022-12-08T08:10:05.014Z,71.79
2022-12-08T08:12:32.934Z,72.04
2022-12-08T08:15:00.922Z,71.62
2022-12-08T08:17:29.309Z,71.80
2022-12-08T08:19:56.740Z,71.86
2022-12-08T08:22:24.627Z,71.81
2022-12-08T08:24:51.965Z,71.76
2022-12-08T08:27:19.192Z,71.52
2022-12-08T08:29:46.248Z,71.48
2022-12-08T08:32:13.095Z,71.07
2022-12-08T08:34:39.734Z,71.02
2022-12-08T08:37:06.431Z,70.74
2022-12-08T08:39:33.220Z,70.79
2022-12-08T08:41:59.797Z,70.79
2022-12-08T08:44:26.599Z,70.82
2022-12-08T08:46:53.361Z,70.83
2022-12-08T08:49:20.756Z,70.36
2022-12-08T08:51:47.523Z,70.58
2022-12-08T08:54:14.884Z,70.31
2022-12-08T08:56:41.921Z,70.12
2022-12-08T08:59:09.285Z,69.97
2022-12-08T09:01:36.066Z,69.82
2022-12-08T09:04:02.917Z,69.77
2022-12-08T09:06:30.029Z,69.64
2022-12-08T09:08:56.834Z,69.29
2022-12-08T09:11:23.775Z,69.20
2022-12-08T09:13:51.618Z,69.25
2022-12-08T09:16:19.471Z,68.79
2022-12-08T09:18:47.897Z,68.85
2022-12-08T09:21:19.735Z,68.80
2022-12-08T09:23:46.398Z,68.54
2022-12-08T09:26:13.000Z,68.67
2022-12-08T09:28:39.676Z,68.41
2022-12-08T09:31:06.269Z,68.17
2022-12-08T09:33:33.452Z,67.65
2022-12-08T09:36:04.337Z,67.63
2022-12-08T09:38:31.134Z,67.51
2022-12-08T09:40:58.688Z,67.56
2022-12-08T09:43:46.571Z,67.57
2022-12-08T09:46:16.948Z,67.22
2022-12-08T09:48:55.388Z,67.09
2022-12-08T09:51:28.610Z,66.70
2022-12-08T09:54:01.002Z,66.81
2022-12-08T09:56:32.420Z,67.05
2022-12-08T09:59:12.641Z,67.44
2022-12-08T10:01:41.196Z,67.50
2022-12-08T10:04:25.162Z,67.53
2022-12-08T10:07:22.148Z,67.14
2022-12-08T10:10:13.293Z,67.21
2022-12-08T10:12:45.916Z,67.15
2022-12-08T10:15:43.581Z,67.35
2022-12-08T10:18:19.507Z,67.31
2022-12-08T10:20:48.875Z,67.20
2022-12-08T10:23:27.933Z,67.47
2022-12-08T10:26:01.074Z,67.06
2022-12-08T10:28:27.813Z,66.78
2022-12-08T10:30:54.449Z,66.94
2022-12-08T10:33:21.961Z,66.82
2022-12-08T10:35:52.752Z,66.99
2022-12-08T10:38:26.654Z,66.92
2022-12-08T10:41:06.857Z,66.72
2022-12-08T10:43:42.023Z,66.80
2022-12-08T10:46:19.445Z,66.85
2022-12-08T10:49:10.966Z,66.88
2022-12-08T10:51:40.026Z,67.00
2022-12-08T10:54:27.834Z,67.13
2022-12-08T10:56:56.923Z,66.83
2022-12-08T10:59:26.389Z,66.97
2022-12-08T11:01:55.574Z,66.95
2022-12-08T11:04:34.033Z,66.61
2022-12-08T11:07:01.951Z,66.26
2022-12-08T11:09:46.259Z,66.34
2022-12-08T11:12:15.239Z,65.91
2022-12-08T11:14:41.896Z,66.28
2022-12-08T11:17:13.206Z,66.03
2022-12-08T11:19:43.050Z,66.21
2022-12-08T11:22:21.713Z,66.16
2022-12-08T11:25:01.656Z,66.60
2022-12-08T11:27:28.870Z,66.30
2022-12-08T11:29:55.841Z,66.05
2022-12-08T11:32:22.591Z,66.41
2022-12-08T11:34:55.551Z,66.19
2022-12-08T11:37:40.198Z,66.60
2022-12-08T11:40:21.443Z,66.77
2022-12-08T11:43:15.972Z,67.44
2022-12-08T11:45:43.816Z,67.55
2022-12-08T11:48:16.022Z,67.46
2022-12-08T11:51:09.630Z,67.31
2022-12-08T11:53:48.559Z,68.07
2022-12-08T11:56:37.131Z,67.62
2022-12-08T11:59:23.615Z,67.85
2022-12-08T12:01:50.754Z,68.11
2022-12-08T12:04:43.872Z,68.52
2022-12-08T12:07:32.448Z,68.42
2022-12-08T12:10:25.139Z,68.49
2022-12-08T12:13:07.932Z,68.38
2022-12-08T12:15:56.386Z,68.52
2022-12-08T12:18:35.235Z,68.08
2022-12-08T12:21:18.603Z,68.21
2022-12-08T12:23:47.454Z,68.24
2022-12-08T12:26:24.370Z,68.25
2022-12-08T12:29:02.605Z,68.42
2022-12-08T12:31:33.416Z,68.21
2022-12-08T12:34:12.431Z,68.45
2022-12-08T12:36:53.752Z,68.04
2022-12-08T12:39:28.852Z,68.42
2022-12-08T12:41:58.252Z,68.63
2022-12-08T12:44:45.217Z,68.81
2022-12-08T12:47:13.974Z,69.60
2022-12-08T12:49:40.806Z,70.15
2022-12-08T12:52:20.391Z,70.89
2022-12-08T12:54:49.969Z,71.80
2022-12-08T12:57:19.335Z,72.73
2022-12-08T12:59:51.624Z,73.77
2022-12-08T13:02:38.005Z,74.76
2022-12-08T13:05:25.943Z,74.75
2022-12-08T13:08:00.229Z,75.17
2022-12-08T13:10:34.838Z,75.26
2022-12-08T13:13:12.004Z,75.38
2022-12-08T13:15:46.477Z,75.24
2022-12-08T13:18:38.268Z,75.12
2022-12-08T13:21:08.105Z,75.14
2022-12-08T13:23:37.746Z,74.90
2022-12-08T13:26:12.112Z,74.79
2022-12-08T13:29:03.543Z,74.80
2022-12-08T13:31:58.632Z,74.82
2022-12-08T13:34:44.828Z,74.60
2022-12-08T13:37:11.431Z,74.77
2022-12-08T13:40:07.295Z,74.84
2022-12-08T13:42:39.966Z,74.99
2022-12-08T13:45:33.535Z,75.09
2022-12-08T13:57:23.918Z,76.23
2022-12-08T13:59:50.614Z,76.76
2022-12-08T14:02:27.399Z,76.76
2022-12-08T14:05:17.668Z,76.55
2022-12-08T14:07:42.557Z,76.87
2022-12-08T14:10:31.413Z,76.88
2022-12-08T14:13:02.349Z,77.00
2022-12-08T14:15:37.187Z,76.92
2022-12-08T14:18:20.736Z,76.94
2022-12-08T14:21:21.981Z,76.88
2022-12-08T14:23:48.814Z,76.74
2022-12-08T14:26:15.459Z,76.61
2022-12-08T14:28:45.164Z,76.74
2022-12-08T14:31:13.856Z,76.61
2022-12-08T14:33:40.862Z,76.98
2022-12-08T14:36:10.191Z,76.92
2022-12-08T14:38:37.196Z,77.26
2022-12-08T14:41:07.316Z,77.66
2022-12-08T14:43:34.688Z,77.83
2022-12-08T14:46:32.295Z,77.97
2022-12-08T14:48:59.179Z,77.78
2022-12-08T14:51:31.614Z,77.98
2022-12-08T14:54:17.594Z,77.90
2022-12-08T14:56:55.489Z,78.23
2022-12-08T14:59:29.886Z,78.30
2022-12-08T15:02:30.614Z,78.56
2022-12-08T15:05:18.599Z,78.55
2022-12-08T15:08:01.853Z,78.94
2022-12-08T15:10:32.067Z,79.02
2022-12-08T15:13:09.312Z,79.15
2022-12-08T15:15:54.090Z,79.46
2022-12-08T15:18:36.439Z,79.65
2022-12-08T15:21:06.034Z,79.78
2022-12-08T15:23:41.952Z,79.87
2022-12-08T15:26:09.921Z,79.79
2022-12-08T15:28:36.589Z,80.18
2022-12-08T15:31:03.238Z,80.22
2022-12-08T15:33:29.889Z,80.12
2022-12-08T15:35:56.527Z,80.11
2022-12-08T15:38:26.507Z,79.90
2022-12-08T15:40:54.307Z,79.99
2022-12-08T15:43:21.916Z,79.92
2022-12-08T15:45:58.494Z,79.97
2022-12-08T15:48:28.685Z,79.87
2022-12-08T15:50:56.117Z,79.80
2022-12-08T15:53:22.878Z,79.69
2022-12-08T15:56:25.273Z,79.80
2022-12-08T15:58:55.162Z,79.72
2022-12-08T16:01:22.731Z,79.74
2022-12-08T16:09:31.938Z,79.40
2022-12-08T16:12:17.156Z,79.39
2022-12-08T16:17:31.327Z,79.46
2022-12-08T16:19:59.193Z,79.30
2022-12-08T16:22:52.783Z,79.36
2022-12-08T16:25:20.562Z,79.24
2022-12-08T16:28:12.639Z,79.40
2022-12-08T16:30:41.553Z,79.53
2022-12-08T16:33:10.753Z,79.73
2022-12-08T16:35:37.702Z,79.58
2022-12-08T16:38:04.354Z,79.51
2022-12-08T16:40:31.328Z,79.60
2022-12-08T16:42:58.002Z,79.40
2022-12-08T16:45:28.115Z,79.44
2022-12-08T16:47:59.675Z,79.71
2022-12-08T16:50:34.416Z,79.85
2022-12-08T16:53:07.191Z,79.57
2022-12-08T16:55:34.836Z,79.35
2022-12-08T16:58:04.751Z,79.41
2022-12-08T17:00:36.475Z,79.07
2022-12-08T17:03:04.823Z,79.19
2022-12-08T17:05:31.621Z,79.52
2022-12-08T17:07:58.558Z,79.18
2022-12-08T17:10:28.667Z,79.20
2022-12-08T17:12:56.048Z,78.95
2022-12-08T17:15:25.139Z,78.71
2022-12-08T17:17:52.885Z,78.77
2022-12-08T17:20:27.862Z,78.51
2022-12-08T17:22:57.237Z,78.90
2022-12-08T17:25:25.473Z,78.68
2022-12-08T17:27:52.183Z,78.49
2022-12-08T17:30:19.107Z,78.68
2022-12-08T17:32:46.071Z,78.71
2022-12-08T17:35:13.784Z,78.63
2022-12-08T17:37:40.587Z,78.71
2022-12-08T17:40:08.246Z,78.71
2022-12-08T17:42:35.055Z,78.51
2022-12-08T17:45:01.656Z,78.55
2022-12-08T17:47:28.555Z,78.48
2022-12-08T17:49:55.692Z,78.37
2022-12-08T17:52:22.360Z,78.20
2022-12-08T17:54:48.980Z,78.38
2022-12-08T17:57:15.592Z,78.41
2022-12-08T17:59:42.225Z,78.63
2022-12-08T18:02:11.411Z,78.86
2022-12-08T18:04:38.180Z,79.19
2022-12-08T18:07:04.831Z,79.25
2022-12-08T18:09:32.095Z,79.47
2022-12-08T18:11:59.315Z,79.64
2022-12-08T18:14:26.020Z,80.01
2022-12-08T18:16:52.682Z,80.16
2022-12-08T18:19:19.407Z,80.11
2022-12-08T18:21:46.170Z,80.56
2022-12-08T18:24:21.449Z,80.57
2022-12-08T18:26:50.043Z,80.50
2022-12-08T18:29:17.013Z,80.76
2022-12-08T18:31:43.704Z,81.10
2022-12-08T18:34:10.328Z,81.08
2022-12-08T18:36:36.922Z,81.29
2022-12-08T18:39:10.208Z,81.30
2022-12-08T18:41:37.551Z,81.31
2022-12-08T18:44:04.522Z,81.14
2022-12-08T18:46:31.242Z,81.12
2022-12-08T18:48:58.839Z,80.92
2022-12-08T18:51:25.471Z,80.82
2022-12-08T18:53:52.510Z,80.59
2022-12-08T18:56:30.858Z,80.42
2022-12-08T18:59:04.127Z,80.55
2022-12-08T19:01:33.079Z,80.55
2022-12-08T19:04:27.519Z,80.59
2022-12-08T19:06:49.398Z,80.61
2022-12-08T19:09:16.675Z,80.41
2022-12-08T19:11:43.765Z,80.43
2022-12-08T19:14:11.165Z,80.33
2022-12-08T19:16:38.235Z,80.38
2022-12-08T19:19:05.150Z,80.12
2022-12-08T19:21:32.434Z,79.97
2022-12-08T19:23:59.378Z,79.53
2022-12-08T19:26:27.617Z,79.36
2022-12-08T19:28:54.766Z,79.22
2022-12-08T19:31:21.393Z,79.29
2022-12-08T19:33:48.299Z,79.26
2022-12-08T19:36:17.691Z,79.35
2022-12-08T19:39:02.747Z,79.07
2022-12-08T19:41:48.115Z,79.24
2022-12-08T19:44:39.360Z,79.22
2022-12-08T19:47:06.302Z,79.40
2022-12-08T19:49:32.972Z,79.36
2022-12-08T19:52:00.477Z,79.47
2022-12-08T19:54:27.404Z,79.78
2022-12-08T19:56:54.099Z,79.51
2022-12-08T19:59:21.152Z,79.39
2022-12-08T20:01:48.618Z,79.39
2022-12-08T20:04:16.008Z,79.05
2022-12-08T20:06:44.597Z,79.28
2022-12-08T20:09:12.461Z,79.03
2022-12-08T20:11:39.998Z,79.13
2022-12-08T20:14:07.116Z,78.89
2022-12-08T20:16:34.393Z,79.14
2022-12-08T20:19:01.699Z,78.97
2022-12-08T20:21:28.522Z,79.18
2022-12-08T20:23:55.601Z,78.89
2022-12-08T20:26:23.137Z,78.68
2022-12-08T20:28:50.350Z,78.60
2022-12-08T20:31:26.146Z,78.50
2022-12-08T20:33:53.630Z,78.56
2022-12-08T20:36:21.601Z,78.32
2022-12-08T20:38:50.094Z,78.32
2022-12-08T20:41:17.830Z,78.43
2022-12-08T20:43:46.068Z,78.74
2022-12-08T20:46:15.689Z,78.39
2022-12-08T20:48:43.888Z,78.59
2022-12-08T20:51:19.557Z,78.47
2022-12-08T20:53:46.458Z,78.55
2022-12-08T20:56:17.951Z,78.43
2022-12-08T20:58:45.209Z,78.40
2022-12-08T21:01:13.892Z,78.29
2022-12-08T21:03:41.672Z,78.04
2022-12-08T21:06:08.989Z,78.20
2022-12-08T21:08:36.343Z,78.28
2022-12-08T21:11:04.949Z,78.26
2022-12-08T21:13:32.055Z,78.22
2022-12-08T21:15:59.355Z,78.10
2022-12-08T21:18:26.106Z,78.48
2022-12-08T21:21:01.341Z,78.37
2022-12-08T21:23:28.107Z,78.37
2022-12-08T21:25:54.967Z,78.44
2022-12-08T21:28:21.789Z,78.31
2022-12-08T21:30:48.714Z,78.61
2022-12-08T21:33:15.619Z,78.03
2022-12-08T21:35:42.840Z,78.34
2022-12-08T21:38:09.667Z,78.41
2022-12-08T21:40:36.667Z,78.47
2022-12-08T21:43:03.416Z,78.46
2022-12-08T21:45:30.522Z,78.38
2022-12-08T21:47:58.635Z,78.76
2022-12-08T21:50:25.677Z,78.71
2022-12-08T21:52:52.307Z,78.69
2022-12-08T21:55:19.836Z,78.88
2022-12-08T21:57:47.003Z,78.86
2022-12-08T22:00:15.757Z,78.60
2022-12-08T22:02:43.115Z,78.85
2022-12-08T22:05:10.788Z,78.86
2022-12-08T22:07:39.360Z,79.00
2022-12-08T22:10:07.753Z,79.19
2022-12-08T22:12:35.363Z,78.98
2022-12-08T22:15:05.255Z,79.05
2022-12-08T22:17:36.954Z,79.04
2022-12-08T22:20:10.129Z,78.96
2022-12-08T22:22:37.322Z,79.18
2022-12-08T22:25:05.597Z,78.94
2022-12-08T22:27:35.133Z,79.08
2022-12-08T22:30:02.994Z,79.00
2022-12-08T22:32:29.903Z,78.87
2022-12-08T22:34:57.342Z,78.78
2022-12-08T22:37:24.231Z,78.91
2022-12-08T22:39:50.967Z,78.67
2022-12-08T22:42:18.520Z,78.77
2022-12-08T22:44:45.330Z,78.66
2022-12-08T22:47:12.166Z,78.79
2022-12-08T22:49:38.950Z,79.14
2022-12-08T22:52:05.598Z,78.91
2022-12-08T22:54:32.512Z,78.80
2022-12-08T22:56:59.286Z,78.82
2022-12-08T22:59:26.044Z,78.79
2022-12-08T23:01:53.502Z,78.91
2022-12-08T23:04:20.359Z,79.07
2022-12-08T23:06:47.305Z,78.80
2022-12-08T23:09:14.059Z,78.90
2022-12-08T23:11:40.980Z,78.75
2022-12-08T23:14:07.552Z,78.68
2022-12-08T23:16:34.323Z,78.54
2022-12-08T23:19:01.122Z,78.73
2022-12-08T23:21:28.890Z,78.60
2022-12-08T23:23:55.816Z,78.64
2022-12-08T23:26:28.108Z,78.41
2022-12-08T23:29:42.667Z,78.42
2022-12-08T23:32:28.304Z,78.62
2022-12-08T23:34:55.218Z,78.55
2022-12-08T23:37:21.979Z,78.51
2022-12-08T23:39:48.929Z,78.40
2022-12-08T23:42:15.889Z,78.37
2022-12-08T23:44:42.634Z,78.58
2022-12-08T23:47:09.573Z,78.61
2022-12-08T23:49:36.510Z,78.43
2022-12-08T23:52:03.953Z,78.48
2022-12-08T23:54:30.881Z,78.80
2022-12-08T23:56:57.513Z,78.75
2022-12-08T23:59:24.081Z,78.59
